Montijo, Spain
Current Conditions -  °F | °C
As of 5:00 PM on Thursday 30 Oct 2014 (Local Time) from LEBZ Reporting Station
Clear Clear  
Wind Chill: 84°   Ceiling: Unl
Heat Index: 84°   Visibility: 6mi
Dew Point: 45°   Wind: 7mph
Humidity: 25%   Direction: 140°SE
Pressure: 30.06"   Gusts: NA
Location:  38.91°N, 6.62°W
Report Text: LEBZ 301600Z 14006KT CAVOK 29/07 Q1018
Loading
Personal Weather Stations






























Interactive Weather Map
Tropical Storm Tracking
New forecast layout! Learn more

10-Day Weather Forecast

Advertisements
Track Severe Weather on mobile